createdAt,value
2019-02-05T18:44:30.879Z,35.80
2019-02-05T18:46:58.567Z,31.82
2019-02-05T18:49:25.826Z,33.10
2019-02-05T18:51:53.099Z,28.23
2019-02-05T18:54:20.358Z,28.23
2019-02-05T18:56:47.610Z,28.92
2019-02-05T18:59:14.863Z,29.85
2019-02-05T19:01:42.113Z,31.02
2019-02-05T19:04:09.365Z,28.65
2019-02-05T19:06:36.630Z,30.72
2019-02-05T19:09:05.510Z,27.80
2019-02-05T19:11:32.772Z,26.70
2019-02-05T19:14:00.092Z,32.13
2019-02-05T19:16:27.356Z,24.80
2019-02-05T19:18:54.714Z,27.02
2019-02-05T19:21:21.975Z,30.50
2019-02-05T19:23:49.621Z,28.20
2019-02-05T19:26:16.890Z,27.05
2019-02-05T19:28:44.246Z,25.10
2019-02-05T19:31:11.833Z,24.30
2019-02-05T19:33:39.174Z,29.63
2019-02-05T19:36:06.666Z,24.57
2019-02-05T19:38:33.929Z,23.45
2019-02-05T19:41:01.700Z,28.62
2019-02-05T19:43:28.949Z,22.77
2019-02-05T19:45:56.192Z,23.60
2019-02-05T19:48:23.631Z,24.85
2019-02-05T19:50:51.267Z,23.60
2019-02-05T19:53:18.558Z,22.37
2019-02-05T19:55:45.873Z,25.15
2019-02-05T19:58:13.146Z,22.55
2019-02-05T20:00:40.577Z,21.70
2019-02-05T20:03:07.844Z,21.60
2019-02-05T20:05:35.086Z,21.90
2019-02-05T20:08:02.349Z,20.65
2019-02-05T20:10:29.659Z,22.42
2019-02-05T20:12:56.917Z,24.50
2019-02-05T20:15:24.171Z,24.50
2019-02-05T20:17:51.433Z,19.98
2019-02-05T20:20:19.362Z,22.32
2019-02-05T20:22:47.216Z,20.92
2019-02-05T20:25:15.233Z,21.87
2019-02-05T20:27:42.505Z,24.80
2019-02-05T20:30:29.281Z,21.73
2019-02-05T20:32:56.575Z,23.15
2019-02-05T20:35:23.826Z,21.10
2019-02-05T20:37:51.495Z,24.30
2019-02-05T20:40:26.256Z,23.57
2019-02-05T20:42:53.606Z,17.37
2019-02-05T20:45:20.857Z,18.55
2019-02-05T20:47:48.118Z,20.40
2019-02-05T20:50:18.673Z,19.23
2019-02-05T20:52:45.937Z,21.15
2019-02-05T20:55:20.705Z,23.38
2019-02-05T20:57:48.051Z,19.23
2019-02-05T21:00:19.910Z,19.05
2019-02-05T21:02:47.186Z,20.37
2019-02-05T21:05:16.065Z,21.60
2019-02-05T21:07:43.350Z,20.97
2019-02-05T21:10:12.453Z,19.40
2019-02-05T21:12:39.722Z,22.52
2019-02-05T21:15:09.230Z,19.35
2019-02-05T21:17:36.810Z,19.20
2019-02-05T21:20:05.693Z,18.37
2019-02-05T21:22:33.084Z,17.65
2019-02-05T21:25:00.334Z,20.32
2019-02-05T21:27:27.577Z,18.48
2019-02-05T21:29:55.330Z,16.20
2019-02-05T21:32:22.588Z,19.52
2019-02-05T21:34:49.854Z,17.87
2019-02-05T21:37:17.102Z,19.00
2019-02-05T21:39:44.363Z,16.57
2019-02-05T21:42:11.604Z,18.07
2019-02-05T21:44:38.871Z,16.75
2019-02-05T21:47:06.118Z,21.35
